createdAt,value
2022-08-10T00:00:26.691Z,4.50
2022-08-10T00:01:26.761Z,5.20
2022-08-10T00:02:26.754Z,6.90
2022-08-10T00:03:26.646Z,4.40
2022-08-10T00:04:26.627Z,4.10
2022-08-10T00:05:26.613Z,4.70
2022-08-10T00:06:26.594Z,8.20
2022-08-10T00:07:26.620Z,5.20
2022-08-10T00:08:26.564Z,5.20
2022-08-10T00:09:26.550Z,4.20
2022-08-10T00:10:26.529Z,3.90
2022-08-10T00:11:26.514Z,4.60
2022-08-10T00:12:53.892Z,4.50
2022-08-10T00:13:26.517Z,4.20
2022-08-10T00:14:26.465Z,3.90
2022-08-10T00:15:52.965Z,4.20
2022-08-10T00:16:26.430Z,5.10
2022-08-10T00:17:26.413Z,5.80
2022-08-10T00:18:34.602Z,4.50
2022-08-10T00:19:26.381Z,4.90
2022-08-10T00:20:26.363Z,5.10
2022-08-10T00:21:27.155Z,4.50
2022-08-10T00:22:26.332Z,4.90
2022-08-10T00:23:26.314Z,5.40
2022-08-10T00:24:26.297Z,5.10
2022-08-10T00:25:26.278Z,5.40
2022-08-10T00:26:26.267Z,5.00
2022-08-10T00:27:52.007Z,4.50
2022-08-10T00:28:26.233Z,4.40
2022-08-10T00:29:26.217Z,5.50
2022-08-10T00:30:26.202Z,4.00
2022-08-10T00:31:26.180Z,5.70
2022-08-10T00:32:26.264Z,6.60
2022-08-10T00:33:26.148Z,5.00
2022-08-10T00:34:26.135Z,4.80
2022-08-10T00:35:26.115Z,5.10
2022-08-10T00:36:26.098Z,6.00
2022-08-10T00:37:26.082Z,4.60
2022-08-10T00:38:26.066Z,6.10
2022-08-10T00:39:26.229Z,4.00
2022-08-10T00:40:37.275Z,4.90
2022-08-10T00:41:26.015Z,4.80
2022-08-10T00:42:26.010Z,5.20
2022-08-10T00:43:25.985Z,4.60
2022-08-10T00:44:25.969Z,6.20
2022-08-10T00:45:25.949Z,4.70
2022-08-10T00:46:25.934Z,5.10
2022-08-10T00:47:36.879Z,5.00
2022-08-10T00:48:25.899Z,4.40
2022-08-10T00:49:25.883Z,7.00
2022-08-10T00:50:25.867Z,4.70
2022-08-10T00:51:47.998Z,4.70
2022-08-10T00:52:25.837Z,5.30
2022-08-10T00:53:26.252Z,5.10
2022-08-10T00:54:25.801Z,5.20
2022-08-10T00:55:25.780Z,5.20
2022-08-10T00:57:02.079Z,6.40
2022-08-10T00:57:25.750Z,5.60
2022-08-10T00:58:25.732Z,5.30
2022-08-10T00:59:25.712Z,7.90
2022-08-10T01:00:25.698Z,4.60
2022-08-10T01:02:09.376Z,5.50
2022-08-10T01:02:25.780Z,4.10
2022-08-10T01:04:54.577Z,9.40
2022-08-10T01:04:57.694Z,5.60
2022-08-10T01:05:25.612Z,5.30
2022-08-10T01:06:25.597Z,5.60
2022-08-10T01:07:25.578Z,5.30
2022-08-10T01:08:25.565Z,6.10
2022-08-10T01:09:25.547Z,4.30
2022-08-10T01:10:25.556Z,5.00
2022-08-10T01:12:34.236Z,5.40
2022-08-10T01:12:38.516Z,6.10
2022-08-10T01:13:25.477Z,5.40
2022-08-10T01:14:25.463Z,5.80
2022-08-10T01:15:25.444Z,4.90
2022-08-10T01:16:25.429Z,6.10
2022-08-10T01:17:25.410Z,8.20
2022-08-10T01:18:25.395Z,6.30
2022-08-10T01:19:25.377Z,5.70
2022-08-10T01:20:27.259Z,6.20
2022-08-10T01:21:25.340Z,6.20
2022-08-10T01:22:25.327Z,6.50
2022-08-10T01:23:25.308Z,6.30
2022-08-10T01:24:25.411Z,5.70
2022-08-10T01:25:25.274Z,6.80
2022-08-10T01:26:31.337Z,6.80
2022-08-10T01:27:27.187Z,6.20
2022-08-10T01:28:25.231Z,5.20
2022-08-10T01:29:25.221Z,5.20
2022-08-10T01:30:25.193Z,4.80
2022-08-10T01:31:25.173Z,6.30
2022-08-10T01:32:25.159Z,5.80
2022-08-10T01:33:31.927Z,4.70
2022-08-10T01:34:25.128Z,5.40
2022-08-10T01:35:25.104Z,6.50
2022-08-10T01:36:32.522Z,6.20
2022-08-10T01:37:25.074Z,4.70
2022-08-10T01:38:25.058Z,5.60
2022-08-10T01:39:25.143Z,6.00
2022-08-10T01:40:25.035Z,6.40
2022-08-10T01:41:25.001Z,5.00
2022-08-10T01:42:24.986Z,7.00
2022-08-10T01:43:24.970Z,7.30
2022-08-10T01:44:24.953Z,7.40
2022-08-10T01:45:24.937Z,6.20
2022-08-10T01:46:24.922Z,5.60
2022-08-10T01:47:24.902Z,7.00
2022-08-10T01:48:24.885Z,5.40
2022-08-10T01:49:24.874Z,6.20
2022-08-10T01:50:24.850Z,6.10
2022-08-10T01:51:24.837Z,5.40
2022-08-10T01:52:24.818Z,5.30
2022-08-10T01:53:24.799Z,6.30
2022-08-10T01:54:24.988Z,5.00
2022-08-10T01:55:24.765Z,5.10
2022-08-10T01:56:24.746Z,6.10
2022-08-10T01:57:24.730Z,6.60
2022-08-10T01:58:24.716Z,8.70
2022-08-10T01:59:24.697Z,7.10
2022-08-10T02:00:24.681Z,5.80
2022-08-10T02:01:24.706Z,6.80
2022-08-10T02:02:24.647Z,6.30
2022-08-10T02:03:24.625Z,6.50
2022-08-10T02:04:24.612Z,6.60
2022-08-10T02:05:24.594Z,6.60
2022-08-10T02:06:24.579Z,6.30
2022-08-10T02:07:24.564Z,6.20
2022-08-10T02:08:24.541Z,6.60
2022-08-10T02:09:24.527Z,5.70
2022-08-10T02:10:24.509Z,5.40
2022-08-10T02:11:24.493Z,5.80
2022-08-10T02:12:24.502Z,6.50
2022-08-10T02:13:24.457Z,5.80
2022-08-10T02:14:24.472Z,6.20
2022-08-10T02:15:24.454Z,7.60
2022-08-10T02:16:24.405Z,6.40
2022-08-10T02:17:59.322Z,7.30
2022-08-10T02:18:24.404Z,5.40
2022-08-10T02:19:24.356Z,7.70
2022-08-10T02:20:24.338Z,6.90
2022-08-10T02:21:24.347Z,7.50
2022-08-10T02:22:46.049Z,6.60
2022-08-10T02:23:24.285Z,7.00
2022-08-10T02:24:24.266Z,5.80
2022-08-10T02:25:39.666Z,7.20
2022-08-10T02:26:24.238Z,6.50
2022-08-10T02:27:24.216Z,9.10
2022-08-10T02:28:27.481Z,7.10
2022-08-10T02:29:24.179Z,8.20
2022-08-10T02:30:24.163Z,5.70
2022-08-10T02:31:24.157Z,5.80
2022-08-10T02:32:36.624Z,6.00
2022-08-10T02:33:24.109Z,6.40
2022-08-10T02:34:24.123Z,6.60
2022-08-10T02:35:24.104Z,7.40
2022-08-10T02:36:24.292Z,6.40
2022-08-10T02:37:24.041Z,6.10
2022-08-10T02:38:59.559Z,5.90
2022-08-10T02:39:24.027Z,8.80
2022-08-10T02:45:01.644Z,7.00
2022-08-10T02:45:15.847Z,8.70
2022-08-10T02:45:17.699Z,6.30
2022-08-10T02:45:23.046Z,6.30
2022-08-10T02:45:26.598Z,5.90
2022-08-10T02:45:31.026Z,6.50
2022-08-10T02:46:23.919Z,7.40
2022-08-10T02:47:23.895Z,7.30
2022-08-10T02:49:23.834Z,6.70
2022-08-10T02:50:23.845Z,5.80
2022-08-10T02:52:06.996Z,9.60
2022-08-10T02:52:23.782Z,6.90
2022-08-10T02:53:54.437Z,7.20
2022-08-10T02:54:23.747Z,5.50
2022-08-10T02:55:27.111Z,7.40
2022-08-10T02:56:23.711Z,6.00
2022-08-10T02:57:23.699Z,6.70
2022-08-10T02:58:23.676Z,6.80
2022-08-10T02:59:23.696Z,6.30
2022-08-10T03:00:23.688Z,7.70
2022-08-10T03:01:23.917Z,7.20
2022-08-10T03:02:23.612Z,6.20
2022-08-10T03:03:23.822Z,5.80
2022-08-10T03:04:55.511Z,7.40
2022-08-10T03:05:23.583Z,6.40
2022-08-10T03:06:23.542Z,8.20
2022-08-10T03:07:43.127Z,6.80
2022-08-10T03:08:23.531Z,8.90
2022-08-10T03:09:23.487Z,7.60
2022-08-10T03:10:23.499Z,7.20
2022-08-10T03:12:36.210Z,7.40
2022-08-10T03:12:46.941Z,6.60
2022-08-10T03:13:23.414Z,6.70
2022-08-10T03:14:23.426Z,7.20
2022-08-10T03:15:23.413Z,7.90
2022-08-10T03:16:23.361Z,8.10
2022-08-10T03:17:23.373Z,6.80
2022-08-10T03:18:23.353Z,6.00
2022-08-10T03:20:33.958Z,8.70
2022-08-10T03:20:36.696Z,7.20
2022-08-10T03:21:23.277Z,8.00
2022-08-10T03:22:23.257Z,6.20
2022-08-10T03:23:23.240Z,7.60
2022-08-10T03:24:33.088Z,6.00
2022-08-10T03:25:23.205Z,7.60
2022-08-10T03:26:23.187Z,6.70
2022-08-10T03:27:23.171Z,7.70
2022-08-10T03:28:23.152Z,6.80
2022-08-10T03:29:23.135Z,7.40
2022-08-10T03:30:32.701Z,8.20
2022-08-10T03:31:23.099Z,7.40
2022-08-10T03:32:23.083Z,7.60
2022-08-10T03:33:23.065Z,7.90
2022-08-10T03:34:33.369Z,9.00
2022-08-10T03:35:23.029Z,10.00
2022-08-10T03:36:43.774Z,8.10
2022-08-10T03:37:22.994Z,6.90
2022-08-10T03:38:22.974Z,8.40
2022-08-10T03:39:23.002Z,8.80
2022-08-10T03:40:22.938Z,9.60
2022-08-10T03:41:22.958Z,8.10
2022-08-10T03:42:22.904Z,9.90
2022-08-10T03:43:22.889Z,9.40
2022-08-10T03:44:22.901Z,9.10
2022-08-10T03:46:22.837Z,10.00
2022-08-10T03:47:23.024Z,7.50
2022-08-10T03:48:22.799Z,8.50
2022-08-10T03:49:22.810Z,9.40
2022-08-10T03:50:28.101Z,8.30
2022-08-10T03:51:22.745Z,8.50
2022-08-10T03:52:22.730Z,7.00
2022-08-10T03:53:24.940Z,9.30
2022-08-10T03:54:22.692Z,7.40
2022-08-10T03:56:26.958Z,7.20
2022-08-10T03:56:30.131Z,7.60
2022-08-10T03:57:22.664Z,8.60
2022-08-10T03:58:22.624Z,7.90
2022-08-10T03:59:22.606Z,11.00
2022-08-10T04:00:22.587Z,11.80
2022-08-10T04:02:45.387Z,9.80
2022-08-10T04:03:22.537Z,10.70
2022-08-10T04:04:24.989Z,9.40
2022-08-10T04:05:22.503Z,8.80
2022-08-10T04:06:22.514Z,7.20
2022-08-10T04:07:22.461Z,7.50
2022-08-10T04:08:22.445Z,9.10
2022-08-10T04:09:22.430Z,9.10
2022-08-10T04:10:22.412Z,8.90
2022-08-10T04:11:22.391Z,12.70
2022-08-10T04:12:22.377Z,11.40
2022-08-10T04:13:22.358Z,9.10
2022-08-10T04:14:38.613Z,9.90
2022-08-10T04:15:22.320Z,9.90
2022-08-10T04:16:22.301Z,8.50
2022-08-10T04:17:56.978Z,7.70
2022-08-10T04:18:22.265Z,8.70
2022-08-10T04:19:22.249Z,10.40
2022-08-10T04:20:22.227Z,7.70
2022-08-10T04:21:22.213Z,10.00
2022-08-10T04:22:22.196Z,8.30
2022-08-10T04:23:22.175Z,9.50
2022-08-10T04:24:26.990Z,8.80
2022-08-10T04:25:22.148Z,11.70
2022-08-10T04:26:22.125Z,9.00
2022-08-10T04:27:22.107Z,8.40
2022-08-10T04:28:22.085Z,11.20
2022-08-10T04:29:22.070Z,8.80
2022-08-10T04:30:22.054Z,8.30
2022-08-10T04:31:22.041Z,9.80
2022-08-10T04:32:22.015Z,9.10
2022-08-10T04:33:22.002Z,9.20
2022-08-10T04:34:21.984Z,11.80
2022-08-10T04:35:21.968Z,12.40
2022-08-10T04:36:21.947Z,9.10
2022-08-10T04:37:21.929Z,10.20
2022-08-10T04:38:21.910Z,9.70
2022-08-10T04:39:21.974Z,13.20
2022-08-10T04:40:25.406Z,10.30
2022-08-10T04:41:21.854Z,10.60
2022-08-10T04:42:21.839Z,11.70
2022-08-10T04:43:21.819Z,10.60
2022-08-10T04:44:21.862Z,9.40
2022-08-10T04:45:21.784Z,11.40
2022-08-10T04:46:55.480Z,9.60
2022-08-10T04:47:57.547Z,8.30
2022-08-10T04:48:42.271Z,8.80
2022-08-10T04:49:55.625Z,9.90
2022-08-10T04:50:21.697Z,11.30
2022-08-10T04:51:21.677Z,11.00
2022-08-10T04:52:21.660Z,11.40
2022-08-10T04:53:21.643Z,10.10
2022-08-10T04:54:21.628Z,12.00
2022-08-10T04:55:21.612Z,13.10
2022-08-10T04:56:21.586Z,11.40
2022-08-10T04:57:21.573Z,10.50
2022-08-10T04:58:21.553Z,11.00
2022-08-10T04:59:21.533Z,11.40
2022-08-10T05:00:21.534Z,10.20
2022-08-10T05:01:24.757Z,9.30
2022-08-10T05:02:28.934Z,11.20
2022-08-10T05:03:21.463Z,8.70
2022-08-10T05:04:35.285Z,10.40
2022-08-10T05:05:21.425Z,10.30
2022-08-10T05:06:21.411Z,11.20
2022-08-10T05:07:21.388Z,10.70
2022-08-10T05:08:21.373Z,9.40
2022-08-10T05:09:21.356Z,13.70
2022-08-10T05:10:21.341Z,11.90
2022-08-10T05:11:23.969Z,11.00
2022-08-10T05:12:21.302Z,10.20
2022-08-10T05:13:21.282Z,11.40
2022-08-10T05:14:21.267Z,9.90
2022-08-10T05:15:21.247Z,13.60
2022-08-10T05:16:32.102Z,11.10
2022-08-10T05:17:21.211Z,11.20
2022-08-10T05:18:21.196Z,11.40
2022-08-10T05:20:02.204Z,9.90
2022-08-10T05:20:21.158Z,11.70
2022-08-10T05:22:03.208Z,12.20
2022-08-10T05:22:21.124Z,9.90
2022-08-10T05:23:21.441Z,10.00
2022-08-10T05:24:21.086Z,11.30
2022-08-10T05:25:21.068Z,10.00
2022-08-10T05:26:21.053Z,10.80
2022-08-10T05:27:21.033Z,11.40
2022-08-10T05:28:21.017Z,10.70
2022-08-10T05:29:20.996Z,11.60
2022-08-10T05:30:21.002Z,11.40
2022-08-10T05:31:23.523Z,13.80
2022-08-10T05:32:20.945Z,13.20
2022-08-10T05:33:20.926Z,13.40
2022-08-10T05:34:21.080Z,12.30
2022-08-10T05:35:20.915Z,11.40
2022-08-10T05:36:20.875Z,11.40
2022-08-10T05:38:13.374Z,10.60
2022-08-10T05:38:20.838Z,12.60
2022-08-10T05:39:28.780Z,10.00
2022-08-10T05:40:20.803Z,11.50
2022-08-10T05:41:20.783Z,10.80
2022-08-10T05:42:20.770Z,10.00
2022-08-10T05:43:20.751Z,10.90
2022-08-10T05:44:20.731Z,12.50
2022-08-10T05:45:20.711Z,10.10
2022-08-10T05:46:21.238Z,14.20
2022-08-10T05:47:20.676Z,12.70
2022-08-10T05:48:54.561Z,11.00
2022-08-10T05:49:20.643Z,10.60
2022-08-10T05:50:20.628Z,9.90
2022-08-10T05:51:20.745Z,11.80
2022-08-10T05:52:20.589Z,13.20
2022-08-10T05:53:59.155Z,12.10
2022-08-10T05:54:20.559Z,9.60
2022-08-10T05:55:20.532Z,11.90
2022-08-10T05:56:20.520Z,10.80
2022-08-10T05:57:20.497Z,12.30
2022-08-10T05:58:20.481Z,11.10
2022-08-10T06:00:35.828Z,12.60
2022-08-10T06:00:36.907Z,12.60
2022-08-10T06:01:20.489Z,11.10
2022-08-10T06:02:33.987Z,11.90
2022-08-10T06:03:23.896Z,11.60
2022-08-10T06:04:20.378Z,13.70
2022-08-10T06:05:20.356Z,11.00
2022-08-10T06:06:24.346Z,12.40
2022-08-10T06:07:21.932Z,13.90
2022-08-10T06:08:20.305Z,10.20
2022-08-10T06:09:20.287Z,10.40
2022-08-10T06:10:31.107Z,12.30
2022-08-10T06:12:27.009Z,11.00
2022-08-10T06:12:28.405Z,12.10
2022-08-10T06:13:30.379Z,13.00
2022-08-10T06:14:20.198Z,11.70
2022-08-10T06:15:21.618Z,11.30
2022-08-10T06:16:20.161Z,12.40
2022-08-10T06:17:20.178Z,13.20
2022-08-10T06:18:20.130Z,11.10
2022-08-10T06:19:20.104Z,11.50
2022-08-10T06:20:20.091Z,12.80
2022-08-10T06:21:20.075Z,12.00
2022-08-10T06:22:20.059Z,10.70
2022-08-10T06:23:20.057Z,10.00
2022-08-10T06:24:20.018Z,10.80
2022-08-10T06:26:08.693Z,10.30
2022-08-10T06:26:21.763Z,12.90
2022-08-10T06:27:19.969Z,12.00
2022-08-10T06:28:19.949Z,11.10
2022-08-10T06:29:19.929Z,9.90
2022-08-10T06:30:21.193Z,10.20
2022-08-10T06:31:19.895Z,8.80
2022-08-10T06:32:19.878Z,10.20
2022-08-10T06:33:19.858Z,10.90
2022-08-10T06:34:19.844Z,12.40
2022-08-10T06:35:19.823Z,10.90
2022-08-10T06:36:19.809Z,10.00
2022-08-10T06:37:19.788Z,12.30
2022-08-10T06:38:19.772Z,9.90
2022-08-10T06:39:36.170Z,11.20
2022-08-10T06:40:19.849Z,11.00
2022-08-10T06:41:20.238Z,9.30
2022-08-10T06:42:19.703Z,8.00
2022-08-10T06:43:19.682Z,9.00
2022-08-10T06:44:19.671Z,12.60
2022-08-10T06:45:19.651Z,8.80
2022-08-10T06:46:19.633Z,9.80
2022-08-10T06:47:23.131Z,10.40
2022-08-10T06:48:19.597Z,10.30
2022-08-10T06:49:19.579Z,12.80
2022-08-10T06:50:34.984Z,13.50
2022-08-10T06:51:19.543Z,9.20
2022-08-10T06:52:19.528Z,10.10
2022-08-10T06:53:19.508Z,11.10
2022-08-10T06:54:19.492Z,8.90
2022-08-10T06:55:19.471Z,9.40
2022-08-10T06:56:19.457Z,10.10
2022-08-10T06:57:19.440Z,10.90
2022-08-10T06:58:19.422Z,11.10
2022-08-10T06:59:21.710Z,8.70
2022-08-10T07:00:20.410Z,8.90
2022-08-10T07:01:19.446Z,9.50
2022-08-10T07:02:19.356Z,8.20
2022-08-10T07:03:19.335Z,10.40
2022-08-10T07:04:19.318Z,9.00
2022-08-10T07:05:19.301Z,11.40
2022-08-10T07:06:19.283Z,8.70
2022-08-10T07:07:19.291Z,8.30
2022-08-10T07:08:19.250Z,7.10
2022-08-10T07:09:19.277Z,8.60
2022-08-10T07:10:19.214Z,10.20
2022-08-10T07:11:19.195Z,7.30
2022-08-10T07:12:19.181Z,10.90
2022-08-10T07:14:16.602Z,8.20
2022-08-10T07:14:19.151Z,8.40
2022-08-10T07:15:19.130Z,8.40
2022-08-10T07:16:19.114Z,6.50
2022-08-10T07:17:19.093Z,8.80
2022-08-10T07:18:19.086Z,7.90
2022-08-10T07:19:19.060Z,7.10
2022-08-10T07:20:19.049Z,7.60
2022-08-10T07:21:19.023Z,7.20
2022-08-10T07:23:23.405Z,7.10
2022-08-10T07:23:55.982Z,10.70
2022-08-10T07:24:18.976Z,10.20
2022-08-10T07:25:18.956Z,10.60
2022-08-10T07:26:18.942Z,10.70
2022-08-10T07:27:18.935Z,9.90
2022-08-10T07:28:18.913Z,6.40
2022-08-10T07:29:53.852Z,6.80
2022-08-10T07:30:18.925Z,6.80
2022-08-10T07:31:54.328Z,9.30
2022-08-10T07:32:18.916Z,7.60
2022-08-10T07:33:18.849Z,7.90
2022-08-10T07:34:22.584Z,14.00
2022-08-10T07:35:18.786Z,5.70
2022-08-10T07:36:18.773Z,9.80
2022-08-10T07:37:18.792Z,5.40
2022-08-10T07:38:18.747Z,6.30
2022-08-10T07:40:01.917Z,9.30
2022-08-10T07:40:19.071Z,9.50
2022-08-10T07:41:18.715Z,11.20
2022-08-10T07:42:18.670Z,8.60
2022-08-10T07:43:18.662Z,9.10
2022-08-10T07:44:18.761Z,6.70
2022-08-10T07:45:18.619Z,6.20
2022-08-10T07:46:18.603Z,9.80
2022-08-10T07:47:18.589Z,5.40
2022-08-10T07:48:18.573Z,5.60
2022-08-10T07:49:19.703Z,9.70
2022-08-10T07:50:18.535Z,5.80
2022-08-10T07:51:18.540Z,5.60
2022-08-10T07:52:18.511Z,7.10
2022-08-10T07:53:18.501Z,8.80
2022-08-10T07:54:18.481Z,6.20
2022-08-10T07:55:18.470Z,6.20
2022-08-10T07:56:45.364Z,7.50
2022-08-10T07:57:24.057Z,8.90
2022-08-10T07:58:18.415Z,4.60
2022-08-10T07:59:18.389Z,5.80
2022-08-10T08:00:18.402Z,5.70
2022-08-10T08:01:18.875Z,4.50
2022-08-10T08:02:18.355Z,5.00
2022-08-10T08:03:18.320Z,4.40
2022-08-10T08:04:18.316Z,5.00
2022-08-10T08:05:55.058Z,8.00
2022-08-10T08:06:18.277Z,5.60
2022-08-10T08:07:21.256Z,6.30
2022-08-10T08:08:18.273Z,3.80
2022-08-10T08:09:18.215Z,5.80
2022-08-10T08:10:18.256Z,3.70
2022-08-10T08:11:26.216Z,4.20
2022-08-10T08:12:18.213Z,9.70
2022-08-10T08:13:18.215Z,5.50
2022-08-10T08:14:18.169Z,4.40
2022-08-10T08:16:20.403Z,7.90
2022-08-10T08:16:21.933Z,3.90
2022-08-10T08:17:18.122Z,7.20
2022-08-10T08:18:22.994Z,4.30
2022-08-10T08:19:37.289Z,5.50
2022-08-10T08:20:18.108Z,5.80
2022-08-10T08:24:02.534Z,4.70
2022-08-10T08:24:08.090Z,6.10
2022-08-10T08:24:11.225Z,4.70
2022-08-10T08:24:33.646Z,5.60
2022-08-10T08:25:17.959Z,6.00
2022-08-10T08:26:17.951Z,3.50
2022-08-10T08:27:17.966Z,6.50
2022-08-10T08:28:17.918Z,5.80
2022-08-10T08:29:17.889Z,3.40
2022-08-10T08:30:26.982Z,4.60
2022-08-10T08:31:17.873Z,5.50
2022-08-10T08:32:17.840Z,6.50
2022-08-10T08:33:19.882Z,4.80
2022-08-10T08:34:17.817Z,5.30
2022-08-10T08:35:17.792Z,4.10
2022-08-10T08:36:17.774Z,3.70
2022-08-10T08:38:27.268Z,4.30
2022-08-10T08:38:31.200Z,5.90
2022-08-10T08:39:17.772Z,4.90
2022-08-10T08:40:17.708Z,4.50
2022-08-10T08:41:17.694Z,3.90
2022-08-10T08:42:17.698Z,7.50
2022-08-10T08:43:17.996Z,3.80
2022-08-10T08:44:17.669Z,5.60
2022-08-10T08:45:17.666Z,5.70
2022-08-10T08:46:17.656Z,3.90
2022-08-10T08:48:04.719Z,5.60
2022-08-10T08:48:17.673Z,4.50
2022-08-10T08:49:41.445Z,4.10
2022-08-10T08:50:17.568Z,5.60
2022-08-10T08:52:09.998Z,5.00
2022-08-10T08:52:18.805Z,5.90
2022-08-10T08:53:22.241Z,5.30
2022-08-10T08:54:17.505Z,6.60
2022-08-10T08:56:03.468Z,4.40
2022-08-10T08:56:17.451Z,4.70
2022-08-10T08:57:46.294Z,4.00
2022-08-10T08:58:17.417Z,3.30
2022-08-10T08:59:17.403Z,4.30
2022-08-10T09:00:17.495Z,3.40
2022-08-10T09:01:17.430Z,4.20
2022-08-10T09:02:17.430Z,6.20
2022-08-10T09:03:17.352Z,5.90
2022-08-10T09:04:21.252Z,5.40
2022-08-10T09:05:17.388Z,4.60
2022-08-10T09:06:17.412Z,4.10
2022-08-10T09:07:59.652Z,6.30
2022-08-10T09:08:17.295Z,4.90
2022-08-10T09:09:17.306Z,3.90
2022-08-10T09:10:17.313Z,5.50
2022-08-10T09:11:17.250Z,5.90
2022-08-10T09:12:17.253Z,4.00
2022-08-10T09:13:17.255Z,6.20
2022-08-10T09:14:17.226Z,6.80
2022-08-10T09:15:39.441Z,4.90
2022-08-10T09:16:17.154Z,4.80
2022-08-10T09:17:17.141Z,6.40
2022-08-10T09:18:17.111Z,5.90
2022-08-10T09:19:19.655Z,4.60
2022-08-10T09:20:17.125Z,3.70
2022-08-10T09:21:17.111Z,4.60
2022-08-10T09:22:19.119Z,3.80
2022-08-10T09:23:17.067Z,3.50
2022-08-10T09:24:20.300Z,3.40
2022-08-10T09:25:17.029Z,6.00
2022-08-10T09:26:17.020Z,4.20
2022-08-10T09:27:16.959Z,3.40
2022-08-10T09:28:16.947Z,4.20
2022-08-10T09:29:16.982Z,5.50
2022-08-10T09:30:16.998Z,4.20
2022-08-10T09:31:22.363Z,4.20
2022-08-10T09:36:13.816Z,3.90
2022-08-10T09:36:21.932Z,5.80
2022-08-10T09:36:24.248Z,3.80
2022-08-10T09:36:29.705Z,3.70
2022-08-10T09:36:33.276Z,2.70
2022-08-10T09:37:16.856Z,7.30
2022-08-10T09:38:16.837Z,3.60
2022-08-10T09:40:05.861Z,4.70
2022-08-10T09:41:00.229Z,4.10
2022-08-10T09:41:16.818Z,4.70
2022-08-10T09:42:16.725Z,3.50
2022-08-10T09:43:25.938Z,4.40
2022-08-10T09:44:16.699Z,4.50
2022-08-10T09:45:16.698Z,3.00
2022-08-10T09:46:16.740Z,3.70
2022-08-10T09:47:16.669Z,4.70
2022-08-10T09:48:16.645Z,6.10
2022-08-10T09:49:17.468Z,5.40
2022-08-10T09:50:16.600Z,5.70
2022-08-10T09:51:42.099Z,3.40
2022-08-10T09:52:16.572Z,2.80
2022-08-10T09:53:16.580Z,6.00
2022-08-10T09:54:16.562Z,3.90
2022-08-10T09:55:16.537Z,3.70
2022-08-10T09:56:21.438Z,3.60
2022-08-10T09:57:41.469Z,5.10
2022-08-10T09:58:16.498Z,3.50
2022-08-10T09:59:29.372Z,3.90
2022-08-10T10:00:16.540Z,3.50
2022-08-10T10:01:57.802Z,4.50
2022-08-10T10:02:16.451Z,4.40
2022-08-10T10:03:17.219Z,7.50
2022-08-10T10:04:16.451Z,7.30
2022-08-10T10:05:16.391Z,4.20
2022-08-10T10:06:16.392Z,4.90
2022-08-10T10:07:16.369Z,4.40
2022-08-10T10:08:16.350Z,4.40
2022-08-10T10:09:16.319Z,4.00
2022-08-10T10:10:16.329Z,4.30
2022-08-10T10:11:16.292Z,3.30
2022-08-10T10:12:16.275Z,3.00
2022-08-10T10:13:16.292Z,3.90
2022-08-10T10:14:16.252Z,8.40
2022-08-10T10:15:24.056Z,5.30
2022-08-10T10:16:16.214Z,3.30
2022-08-10T10:17:16.206Z,3.90
2022-08-10T10:18:16.201Z,2.90
2022-08-10T10:19:16.189Z,3.30
2022-08-10T10:20:16.161Z,5.30
2022-08-10T10:21:24.118Z,4.30
2022-08-10T10:22:16.134Z,4.30
2022-08-10T10:23:16.127Z,3.00
2022-08-10T10:24:20.336Z,2.90
2022-08-10T10:25:20.924Z,2.70
2022-08-10T10:26:18.689Z,3.10
2022-08-10T10:27:16.848Z,3.10
2022-08-10T10:28:16.102Z,4.40
2022-08-10T10:29:44.692Z,4.80
2022-08-10T10:30:16.068Z,4.60
2022-08-10T10:31:16.647Z,4.20
2022-08-10T10:32:16.110Z,2.70
2022-08-10T10:33:16.062Z,4.30
2022-08-10T10:34:16.022Z,3.50
2022-08-10T10:35:16.023Z,3.10
2022-08-10T10:36:15.991Z,4.40
2022-08-10T10:37:15.957Z,3.00
2022-08-10T10:38:15.923Z,5.80
2022-08-10T10:39:18.443Z,3.10
2022-08-10T10:40:15.888Z,4.50
2022-08-10T10:41:15.868Z,5.80
2022-08-10T10:42:28.963Z,2.70
2022-08-10T10:43:15.851Z,5.00
2022-08-10T10:44:15.842Z,5.40
2022-08-10T10:45:15.814Z,4.30
2022-08-10T10:46:15.873Z,4.10
2022-08-10T10:47:15.851Z,2.60
2022-08-10T10:48:23.729Z,3.10
2022-08-10T10:49:15.775Z,2.90
2022-08-10T10:50:15.748Z,3.10
2022-08-10T10:51:15.744Z,5.50
2022-08-10T10:52:15.741Z,3.40
2022-08-10T10:53:15.712Z,2.60
2022-08-10T10:54:15.718Z,2.70
2022-08-10T10:55:15.689Z,3.30
2022-08-10T10:56:16.405Z,2.60
2022-08-10T10:57:15.664Z,4.20
2022-08-10T10:58:20.092Z,7.00
2022-08-10T10:59:53.674Z,2.90
2022-08-10T11:00:15.631Z,2.40
2022-08-10T11:01:15.699Z,3.60
2022-08-10T11:02:15.591Z,3.30
2022-08-10T11:03:15.590Z,4.00
2022-08-10T11:04:15.564Z,3.50
2022-08-10T11:05:15.576Z,2.90
2022-08-10T11:06:15.550Z,5.80
2022-08-10T11:07:15.544Z,5.40
2022-08-10T11:08:15.542Z,5.00
2022-08-10T11:10:04.618Z,3.40
2022-08-10T11:10:32.609Z,3.00
2022-08-10T11:11:59.609Z,3.50
2022-08-10T11:12:15.481Z,4.30
2022-08-10T11:14:23.029Z,3.10
2022-08-10T11:14:27.100Z,2.40
2022-08-10T11:15:15.424Z,3.30
2022-08-10T11:16:15.411Z,3.20
2022-08-10T11:17:15.400Z,6.40
2022-08-10T11:18:15.384Z,2.40
2022-08-10T11:19:15.374Z,5.00
2022-08-10T11:20:15.359Z,3.30
2022-08-10T11:21:15.349Z,2.90
2022-08-10T11:22:16.537Z,3.40
2022-08-10T11:23:15.322Z,3.30
2022-08-10T11:24:47.979Z,3.40
2022-08-10T11:25:15.297Z,3.70
2022-08-10T11:26:15.283Z,2.60
2022-08-10T11:27:22.034Z,3.80
2022-08-10T11:28:15.265Z,3.80
2022-08-10T11:29:15.252Z,4.30
2022-08-10T11:30:15.248Z,3.50
2022-08-10T11:31:15.226Z,2.60
2022-08-10T11:32:21.102Z,2.80
2022-08-10T11:33:15.196Z,3.40
2022-08-10T11:34:48.870Z,3.00
2022-08-10T11:35:15.201Z,4.50
2022-08-10T11:36:15.156Z,2.80
2022-08-10T11:37:15.151Z,3.00
2022-08-10T11:38:32.957Z,3.10
2022-08-10T11:39:15.160Z,4.10
2022-08-10T11:40:15.103Z,2.40
2022-08-10T11:42:12.233Z,2.40
2022-08-10T11:42:26.473Z,4.30
2022-08-10T11:43:15.113Z,4.60
2022-08-10T11:44:15.118Z,3.10
2022-08-10T11:45:15.111Z,3.10
2022-08-10T11:46:27.599Z,5.20
2022-08-10T11:47:15.081Z,2.30
2022-08-10T11:48:53.415Z,3.50
2022-08-10T11:49:15.032Z,4.20
2022-08-10T11:50:14.991Z,2.40
2022-08-10T11:51:14.963Z,3.90
2022-08-10T11:52:14.967Z,6.80
2022-08-10T11:53:14.933Z,4.60
2022-08-10T11:54:14.926Z,3.80
2022-08-10T11:55:15.663Z,3.20
2022-08-10T11:56:14.899Z,3.10
2022-08-10T11:57:16.792Z,4.30
2022-08-10T11:58:14.864Z,4.80
2022-08-10T11:59:17.120Z,3.30
2022-08-10T12:00:14.837Z,2.70
2022-08-10T12:01:14.824Z,3.30
2022-08-10T12:02:14.900Z,3.00
2022-08-10T12:03:14.799Z,2.90
2022-08-10T12:04:14.787Z,3.40
2022-08-10T12:05:14.772Z,5.60
2022-08-10T12:06:14.758Z,5.10
2022-08-10T12:09:24.104Z,3.60
2022-08-10T12:10:04.795Z,3.30
2022-08-10T12:10:09.686Z,6.50
2022-08-10T12:10:14.713Z,3.80
2022-08-10T12:11:24.089Z,3.30
2022-08-10T12:12:14.675Z,3.30
2022-08-10T12:13:14.665Z,4.00
2022-08-10T12:14:23.037Z,4.40
2022-08-10T12:15:14.636Z,3.50
2022-08-10T12:16:14.624Z,4.80
2022-08-10T12:17:14.617Z,3.70
2022-08-10T12:18:14.666Z,4.00
2022-08-10T12:19:14.583Z,3.80
2022-08-10T12:20:14.572Z,3.70
2022-08-10T12:21:21.035Z,3.40
2022-08-10T12:22:14.544Z,4.40
2022-08-10T12:23:14.528Z,2.80
2022-08-10T12:24:14.517Z,4.00
2022-08-10T12:25:18.131Z,4.40
2022-08-10T12:26:14.490Z,4.80
2022-08-10T12:27:14.480Z,6.00
2022-08-10T12:28:14.462Z,2.50
2022-08-10T12:29:14.450Z,2.80
2022-08-10T12:30:14.510Z,3.00
2022-08-10T12:31:14.431Z,3.20
2022-08-10T12:32:14.411Z,3.60
2022-08-10T12:33:14.398Z,2.80
2022-08-10T12:34:14.385Z,2.50
2022-08-10T12:35:17.223Z,3.30
2022-08-10T12:36:18.391Z,5.10
2022-08-10T12:37:14.345Z,2.50
2022-08-10T12:38:14.344Z,2.60
2022-08-10T12:39:14.422Z,4.10
2022-08-10T12:41:14.337Z,3.50
2022-08-10T12:42:37.138Z,4.50
2022-08-10T12:44:07.218Z,4.90
2022-08-10T12:44:14.259Z,3.20
2022-08-10T12:45:14.235Z,4.00
2022-08-10T12:46:14.220Z,6.00
2022-08-10T12:47:14.715Z,3.20
2022-08-10T12:48:14.197Z,3.60
2022-08-10T12:49:14.196Z,3.00
2022-08-10T12:50:32.895Z,2.80
2022-08-10T12:51:14.158Z,2.70
2022-08-10T12:52:14.145Z,3.70
2022-08-10T12:53:14.131Z,8.50
2022-08-10T12:54:14.121Z,3.20
2022-08-10T12:55:14.148Z,2.20
2022-08-10T12:56:14.152Z,3.30
2022-08-10T12:57:14.159Z,2.30
2022-08-10T12:58:59.134Z,2.80
2022-08-10T12:59:14.123Z,5.00
2022-08-10T13:00:17.548Z,3.30
2022-08-10T13:01:17.003Z,5.00
2022-08-10T13:02:14.079Z,4.60
2022-08-10T13:03:14.031Z,4.10
2022-08-10T13:04:22.461Z,3.30
2022-08-10T13:05:14.005Z,3.20
2022-08-10T13:06:13.979Z,3.80
2022-08-10T13:08:24.747Z,3.30
2022-08-10T13:08:27.648Z,3.20
2022-08-10T13:09:13.956Z,6.20
2022-08-10T13:10:13.926Z,5.20
2022-08-10T13:11:26.275Z,3.60
2022-08-10T13:12:36.969Z,3.90
2022-08-10T13:13:13.887Z,3.70
2022-08-10T13:14:13.900Z,4.10
2022-08-10T13:15:45.225Z,7.30
2022-08-10T13:16:13.823Z,5.90
2022-08-10T13:17:13.827Z,4.10